sensor_id;sensor_type;location;lat;lon;timestamp;P1;durP1;ratioP1;P2;durP2;ratioP2
59416;SDS011;45222;52.458;20.914;2022-11-03T12:51:04;10.10;;;2.60;;
59416;SDS011;45222;52.458;20.914;2022-11-03T12:54:10;7.80;;;2.30;;
59416;SDS011;45222;52.458;20.914;2022-11-03T12:57:16;11.80;;;2.60;;
59416;SDS011;45222;52.458;20.914;2022-11-03T13:00:21;9.50;;;3.20;;
59416;SDS011;45222;52.458;20.914;2022-11-03T13:03:27;8.00;;;2.70;;
59416;SDS011;45222;52.458;20.914;2022-11-03T13:06:33;11.10;;;2.60;;
59416;SDS011;45222;52.458;20.914;2022-11-03T13:09:38;9.10;;;2.80;;
59416;SDS011;45222;52.458;20.914;2022-11-03T13:12:44;8.00;;;2.40;;
59416;SDS011;45222;52.458;20.914;2022-11-03T13:15:49;8.70;;;2.80;;
59416;SDS011;45222;52.458;20.914;2022-11-03T13:18:54;7.50;;;2.20;;
59416;SDS011;45222;52.458;20.914;2022-11-03T13:21:59;9.10;;;2.60;;
59416;SDS011;45222;52.458;20.914;2022-11-03T13:25:06;9.00;;;2.90;;
59416;SDS011;45222;52.458;20.914;2022-11-03T13:28:12;7.20;;;2.70;;
59416;SDS011;45222;52.458;20.914;2022-11-03T13:31:17;9.00;;;2.80;;
59416;SDS011;45222;52.458;20.914;2022-11-03T13:34:22;8.40;;;2.70;;
59416;SDS011;45222;52.458;20.914;2022-11-03T13:37:28;9.20;;;2.50;;
59416;SDS011;45222;52.458;20.914;2022-11-03T13:40:33;8.40;;;2.40;;
59416;SDS011;45222;52.458;20.914;2022-11-03T13:43:38;9.70;;;2.70;;
59416;SDS011;45222;52.458;20.914;2022-11-03T13:46:44;8.60;;;2.30;;
59416;SDS011;45222;52.458;20.914;2022-11-03T13:49:49;7.70;;;2.60;;
59416;SDS011;45222;52.458;20.914;2022-11-03T13:52:54;9.10;;;2.70;;
59416;SDS011;45222;52.458;20.914;2022-11-03T13:56:00;8.50;;;2.50;;
59416;SDS011;45222;52.458;20.914;2022-11-03T13:59:05;9.50;;;3.10;;
59416;SDS011;45222;52.458;20.914;2022-11-03T14:02:11;10.20;;;2.80;;
59416;SDS011;45222;52.458;20.914;2022-11-03T14:05:16;9.00;;;2.90;;
59416;SDS011;45222;52.458;20.914;2022-11-03T14:08:21;10.80;;;2.80;;
59416;SDS011;45222;52.458;20.914;2022-11-03T14:11:27;8.20;;;2.70;;
59416;SDS011;45222;52.458;20.914;2022-11-03T14:14:50;9.80;;;2.90;;
59416;SDS011;45222;52.458;20.914;2022-11-03T14:17:55;9.20;;;2.70;;
59416;SDS011;45222;52.458;20.914;2022-11-03T14:21:01;10.40;;;3.00;;
59416;SDS011;45222;52.458;20.914;2022-11-03T14:24:06;11.90;;;3.30;;
59416;SDS011;45222;52.458;20.914;2022-11-03T14:27:12;11.90;;;3.10;;
59416;SDS011;45222;52.458;20.914;2022-11-03T14:30:18;9.80;;;2.70;;
59416;SDS011;45222;52.458;20.914;2022-11-03T14:33:23;10.20;;;3.00;;
59416;SDS011;45222;52.458;20.914;2022-11-03T14:36:28;9.10;;;2.90;;
59416;SDS011;45222;52.458;20.914;2022-11-03T14:39:34;10.30;;;2.80;;
59416;SDS011;45222;52.458;20.914;2022-11-03T14:42:39;8.50;;;2.90;;
59416;SDS011;45222;52.458;20.914;2022-11-03T14:45:45;9.40;;;3.20;;
59416;SDS011;45222;52.458;20.914;2022-11-03T14:48:50;9.10;;;2.90;;
59416;SDS011;45222;52.458;20.914;2022-11-03T14:51:56;10.00;;;2.90;;
59416;SDS011;45222;52.458;20.914;2022-11-03T14:55:03;10.80;;;3.00;;
59416;SDS011;45222;52.458;20.914;2022-11-03T14:58:10;8.70;;;2.50;;
59416;SDS011;45222;52.458;20.914;2022-11-03T15:01:15;9.70;;;2.80;;
59416;SDS011;45222;52.458;20.914;2022-11-03T15:04:21;8.60;;;3.00;;
59416;SDS011;45222;52.458;20.914;2022-11-03T15:07:27;10.60;;;3.40;;
59416;SDS011;45222;52.458;20.914;2022-11-03T15:10:33;9.10;;;2.90;;
59416;SDS011;45222;52.458;20.914;2022-11-03T15:13:39;10.00;;;2.90;;
59416;SDS011;45222;52.458;20.914;2022-11-03T15:16:44;9.10;;;2.80;;
59416;SDS011;45222;52.458;20.914;2022-11-03T15:19:49;11.30;;;2.90;;
59416;SDS011;45222;52.458;20.914;2022-11-03T15:22:55;10.60;;;3.00;;
59416;SDS011;45222;52.458;20.914;2022-11-03T15:26:01;9.70;;;3.30;;
59416;SDS011;45222;52.458;20.914;2022-11-03T15:29:06;8.70;;;3.20;;
59416;SDS011;45222;52.458;20.914;2022-11-03T15:32:12;10.30;;;3.20;;
59416;SDS011;45222;52.458;20.914;2022-11-03T15:35:17;9.00;;;3.30;;
59416;SDS011;45222;52.458;20.914;2022-11-03T15:38:22;10.30;;;3.10;;
59416;SDS011;45222;52.458;20.914;2022-11-03T15:41:28;10.60;;;3.10;;
59416;SDS011;45222;52.458;20.914;2022-11-03T15:44:34;12.60;;;4.20;;
59416;SDS011;45222;52.458;20.914;2022-11-03T15:47:39;12.00;;;3.90;;
59416;SDS011;45222;52.458;20.914;2022-11-03T15:50:44;10.40;;;3.40;;
59416;SDS011;45222;52.458;20.914;2022-11-03T15:53:49;11.50;;;3.70;;
59416;SDS011;45222;52.458;20.914;2022-11-03T15:56:55;12.00;;;3.90;;
59416;SDS011;45222;52.458;20.914;2022-11-03T16:00:01;9.90;;;3.90;;
59416;SDS011;45222;52.458;20.914;2022-11-03T16:03:08;10.40;;;3.50;;
59416;SDS011;45222;52.458;20.914;2022-11-03T16:06:13;11.80;;;3.60;;
59416;SDS011;45222;52.458;20.914;2022-11-03T16:09:19;9.90;;;3.70;;
59416;SDS011;45222;52.458;20.914;2022-11-03T16:12:24;12.60;;;4.10;;
59416;SDS011;45222;52.458;20.914;2022-11-03T16:15:30;12.10;;;4.40;;
59416;SDS011;45222;52.458;20.914;2022-11-03T16:18:36;13.00;;;5.20;;
59416;SDS011;45222;52.458;20.914;2022-11-03T16:21:41;11.70;;;4.90;;
59416;SDS011;45222;52.458;20.914;2022-11-03T16:24:47;9.70;;;4.40;;
59416;SDS011;45222;52.458;20.914;2022-11-03T16:27:52;14.50;;;5.20;;
59416;SDS011;45222;52.458;20.914;2022-11-03T16:30:58;15.50;;;5.60;;
59416;SDS011;45222;52.458;20.914;2022-11-03T16:34:04;10.00;;;4.90;;
59416;SDS011;45222;52.458;20.914;2022-11-03T16:37:09;12.60;;;6.10;;
59416;SDS011;45222;52.458;20.914;2022-11-03T16:40:15;12.70;;;6.10;;
59416;SDS011;45222;52.458;20.914;2022-11-03T16:43:21;11.50;;;6.20;;
59416;SDS011;45222;52.458;20.914;2022-11-03T16:46:26;13.20;;;6.10;;
59416;SDS011;45222;52.458;20.914;2022-11-03T16:49:32;11.20;;;5.70;;
59416;SDS011;45222;52.458;20.914;2022-11-03T16:52:43;10.10;;;4.70;;
59416;SDS011;45222;52.458;20.914;2022-11-03T16:55:49;10.00;;;5.50;;
59416;SDS011;45222;52.458;20.914;2022-11-03T16:58:54;11.70;;;5.80;;
59416;SDS011;45222;52.458;20.914;2022-11-03T17:02:00;13.00;;;6.60;;
59416;SDS011;45222;52.458;20.914;2022-11-03T17:05:06;14.70;;;6.20;;
59416;SDS011;45222;52.458;20.914;2022-11-03T17:08:12;13.60;;;6.50;;
59416;SDS011;45222;52.458;20.914;2022-11-03T17:11:17;13.20;;;6.90;;
59416;SDS011;45222;52.458;20.914;2022-11-03T17:14:37;15.50;;;7.50;;
59416;SDS011;45222;52.458;20.914;2022-11-03T17:17:42;16.30;;;7.50;;
59416;SDS011;45222;52.458;20.914;2022-11-03T17:20:48;16.20;;;7.80;;
59416;SDS011;45222;52.458;20.914;2022-11-03T17:23:53;14.80;;;7.30;;
59416;SDS011;45222;52.458;20.914;2022-11-03T17:27:00;17.30;;;7.70;;
59416;SDS011;45222;52.458;20.914;2022-11-03T17:30:11;17.30;;;9.20;;
59416;SDS011;45222;52.458;20.914;2022-11-03T17:33:20;14.00;;;7.40;;
59416;SDS011;45222;52.458;20.914;2022-11-03T17:36:25;13.00;;;7.30;;
59416;SDS011;45222;52.458;20.914;2022-11-03T17:39:31;16.70;;;7.40;;
59416;SDS011;45222;52.458;20.914;2022-11-03T17:42:40;14.50;;;8.20;;
59416;SDS011;45222;52.458;20.914;2022-11-03T17:45:46;16.80;;;8.40;;
59416;SDS011;45222;52.458;20.914;2022-11-03T17:48:52;18.40;;;9.60;;
59416;SDS011;45222;52.458;20.914;2022-11-03T17:51:57;15.70;;;9.10;;
59416;SDS011;45222;52.458;20.914;2022-11-03T17:55:04;22.50;;;11.60;;
59416;SDS011;45222;52.458;20.914;2022-11-03T17:58:18;26.20;;;15.70;;
59416;SDS011;45222;52.458;20.914;2022-11-03T18:01:30;26.70;;;17.90;;
59416;SDS011;45222;52.458;20.914;2022-11-03T18:04:36;31.00;;;22.10;;
59416;SDS011;45222;52.458;20.914;2022-11-03T18:07:41;31.80;;;22.30;;
59416;SDS011;45222;52.458;20.914;2022-11-03T18:10:47;30.10;;;18.70;;
59416;SDS011;45222;52.458;20.914;2022-11-03T18:13:54;28.80;;;20.30;;
59416;SDS011;45222;52.458;20.914;2022-11-03T18:17:01;27.10;;;18.20;;
59416;SDS011;45222;52.458;20.914;2022-11-03T18:20:10;24.70;;;16.80;;
59416;SDS011;45222;52.458;20.914;2022-11-03T18:23:20;24.30;;;16.20;;
59416;SDS011;45222;52.458;20.914;2022-11-03T18:26:27;25.00;;;16.30;;
59416;SDS011;45222;52.458;20.914;2022-11-03T18:29:32;23.90;;;15.90;;
59416;SDS011;45222;52.458;20.914;2022-11-03T18:32:38;27.40;;;16.80;;
59416;SDS011;45222;52.458;20.914;2022-11-03T18:35:44;26.00;;;17.30;;
59416;SDS011;45222;52.458;20.914;2022-11-03T18:38:50;24.40;;;16.40;;
59416;SDS011;45222;52.458;20.914;2022-11-03T18:41:59;25.30;;;16.00;;
59416;SDS011;45222;52.458;20.914;2022-11-03T18:45:08;23.70;;;15.10;;
59416;SDS011;45222;52.458;20.914;2022-11-03T18:48:16;23.70;;;14.90;;
59416;SDS011;45222;52.458;20.914;2022-11-03T18:51:21;23.20;;;15.40;;
59416;SDS011;45222;52.458;20.914;2022-11-03T18:54:27;24.20;;;15.50;;
59416;SDS011;45222;52.458;20.914;2022-11-03T18:57:33;22.80;;;15.10;;
59416;SDS011;45222;52.458;20.914;2022-11-03T19:00:39;21.80;;;14.40;;
59416;SDS011;45222;52.458;20.914;2022-11-03T19:03:44;23.30;;;15.90;;
59416;SDS011;45222;52.458;20.914;2022-11-03T19:06:50;21.80;;;14.70;;
59416;SDS011;45222;52.458;20.914;2022-11-03T19:09:55;20.30;;;13.00;;
59416;SDS011;45222;52.458;20.914;2022-11-03T19:13:02;22.10;;;13.80;;
59416;SDS011;45222;52.458;20.914;2022-11-03T19:16:09;22.80;;;15.30;;
59416;SDS011;45222;52.458;20.914;2022-11-03T19:19:18;28.40;;;17.90;;
59416;SDS011;45222;52.458;20.914;2022-11-03T19:22:23;26.90;;;17.50;;
59416;SDS011;45222;52.458;20.914;2022-11-03T19:25:29;27.00;;;17.70;;
59416;SDS011;45222;52.458;20.914;2022-11-03T19:28:34;27.80;;;18.60;;
59416;SDS011;45222;52.458;20.914;2022-11-03T19:31:40;25.10;;;16.70;;
59416;SDS011;45222;52.458;20.914;2022-11-03T19:34:48;27.80;;;19.20;;
59416;SDS011;45222;52.458;20.914;2022-11-03T19:37:59;27.70;;;18.30;;
59416;SDS011;45222;52.458;20.914;2022-11-03T19:41:08;29.20;;;20.50;;
59416;SDS011;45222;52.458;20.914;2022-11-03T19:44:35;28.40;;;19.40;;
59416;SDS011;45222;52.458;20.914;2022-11-03T19:47:41;29.40;;;19.20;;
59416;SDS011;45222;52.458;20.914;2022-11-03T19:50:49;26.30;;;18.20;;
59416;SDS011;45222;52.458;20.914;2022-11-03T19:53:55;25.30;;;16.80;;
59416;SDS011;45222;52.458;20.914;2022-11-03T19:57:01;25.60;;;16.90;;
59416;SDS011;45222;52.458;20.914;2022-11-03T20:00:12;26.80;;;17.10;;
59416;SDS011;45222;52.458;20.914;2022-11-03T20:03:19;26.00;;;17.70;;
59416;SDS011;45222;52.458;20.914;2022-11-03T20:06:25;26.40;;;16.80;;
59416;SDS011;45222;52.458;20.914;2022-11-03T20:09:31;30.10;;;18.00;;
59416;SDS011;45222;52.458;20.914;2022-11-03T20:12:39;25.80;;;17.60;;
59416;SDS011;45222;52.458;20.914;2022-11-03T20:15:45;32.00;;;19.50;;
59416;SDS011;45222;52.458;20.914;2022-11-03T20:18:50;29.50;;;18.80;;
59416;SDS011;45222;52.458;20.914;2022-11-03T20:21:56;27.80;;;18.40;;
59416;SDS011;45222;52.458;20.914;2022-11-03T20:25:03;29.50;;;19.70;;
59416;SDS011;45222;52.458;20.914;2022-11-03T20:28:14;31.30;;;18.90;;
59416;SDS011;45222;52.458;20.914;2022-11-03T20:31:22;27.20;;;18.10;;
59416;SDS011;45222;52.458;20.914;2022-11-03T20:34:28;27.80;;;18.40;;
59416;SDS011;45222;52.458;20.914;2022-11-03T20:37:33;32.40;;;19.60;;
59416;SDS011;45222;52.458;20.914;2022-11-03T20:40:39;26.30;;;19.00;;
59416;SDS011;45222;52.458;20.914;2022-11-03T20:43:45;29.40;;;20.20;;
59416;SDS011;45222;52.458;20.914;2022-11-03T20:46:51;31.60;;;20.70;;
59416;SDS011;45222;52.458;20.914;2022-11-03T20:49:56;28.30;;;18.70;;
59416;SDS011;45222;52.458;20.914;2022-11-03T20:53:02;30.50;;;19.80;;
59416;SDS011;45222;52.458;20.914;2022-11-03T20:56:08;29.30;;;19.30;;
59416;SDS011;45222;52.458;20.914;2022-11-03T20:59:18;30.60;;;19.70;;
59416;SDS011;45222;52.458;20.914;2022-11-03T21:02:26;31.80;;;20.20;;
59416;SDS011;45222;52.458;20.914;2022-11-03T21:05:32;27.80;;;18.50;;
59416;SDS011;45222;52.458;20.914;2022-11-03T21:08:38;26.80;;;17.80;;
59416;SDS011;45222;52.458;20.914;2022-11-03T21:11:44;27.20;;;17.90;;
59416;SDS011;45222;52.458;20.914;2022-11-03T21:14:50;25.90;;;17.70;;
59416;SDS011;45222;52.458;20.914;2022-11-03T21:18:16;26.30;;;16.90;;
59416;SDS011;45222;52.458;20.914;2022-11-03T21:21:39;29.60;;;17.70;;
59416;SDS011;45222;52.458;20.914;2022-11-03T21:24:44;26.60;;;18.00;;
59416;SDS011;45222;52.458;20.914;2022-11-03T21:27:50;27.20;;;17.70;;
59416;SDS011;45222;52.458;20.914;2022-11-03T21:30:57;25.60;;;17.30;;
59416;SDS011;45222;52.458;20.914;2022-11-03T21:34:03;26.90;;;17.40;;
59416;SDS011;45222;52.458;20.914;2022-11-03T21:37:09;24.20;;;11.00;;
59416;SDS011;45222;52.458;20.914;2022-11-03T21:40:17;24.90;;;17.20;;
59416;SDS011;45222;52.458;20.914;2022-11-03T21:43:23;22.90;;;11.80;;
59416;SDS011;45222;52.458;20.914;2022-11-03T21:46:42;24.40;;;16.50;;
59416;SDS011;45222;52.458;20.914;2022-11-03T21:49:49;24.10;;;16.40;;
59416;SDS011;45222;52.458;20.914;2022-11-03T21:52:55;24.40;;;17.00;;
59416;SDS011;45222;52.458;20.914;2022-11-03T21:56:01;26.40;;;18.50;;
59416;SDS011;45222;52.458;20.914;2022-11-03T21:59:07;25.90;;;17.00;;
59416;SDS011;45222;52.458;20.914;2022-11-03T22:02:12;25.20;;;16.60;;
59416;SDS011;45222;52.458;20.914;2022-11-03T22:05:18;26.70;;;17.30;;
59416;SDS011;45222;52.458;20.914;2022-11-03T22:08:23;23.00;;;17.20;;
59416;SDS011;45222;52.458;20.914;2022-11-03T22:11:29;25.20;;;13.00;;
59416;SDS011;45222;52.458;20.914;2022-11-03T22:14:34;26.20;;;19.00;;
59416;SDS011;45222;52.458;20.914;2022-11-03T22:17:59;24.70;;;18.00;;
59416;SDS011;45222;52.458;20.914;2022-11-03T22:21:06;27.20;;;16.60;;
59416;SDS011;45222;52.458;20.914;2022-11-03T22:24:29;22.50;;;15.50;;
59416;SDS011;45222;52.458;20.914;2022-11-03T22:27:53;23.40;;;15.20;;
59416;SDS011;45222;52.458;20.914;2022-11-03T22:30:58;21.90;;;14.90;;
59416;SDS011;45222;52.458;20.914;2022-11-03T22:34:39;21.90;;;15.90;;
59416;SDS011;45222;52.458;20.914;2022-11-03T22:38:03;22.30;;;16.20;;
59416;SDS011;45222;52.458;20.914;2022-11-03T22:41:10;24.80;;;10.60;;
59416;SDS011;45222;52.458;20.914;2022-11-03T22:44:33;23.60;;;16.00;;
59416;SDS011;45222;52.458;20.914;2022-11-03T22:47:55;23.10;;;15.60;;
59416;SDS011;45222;52.458;20.914;2022-11-03T22:51:02;23.70;;;15.30;;
59416;SDS011;45222;52.458;20.914;2022-11-03T22:54:10;22.40;;;14.70;;
59416;SDS011;45222;52.458;20.914;2022-11-03T22:57:16;23.70;;;9.90;;
59416;SDS011;45222;52.458;20.914;2022-11-03T23:00:21;22.90;;;14.30;;
59416;SDS011;45222;52.458;20.914;2022-11-03T23:03:26;20.20;;;14.40;;
59416;SDS011;45222;52.458;20.914;2022-11-03T23:06:35;21.70;;;14.10;;
59416;SDS011;45222;52.458;20.914;2022-11-03T23:09:42;20.30;;;13.70;;
59416;SDS011;45222;52.458;20.914;2022-11-03T23:12:47;21.10;;;14.30;;
59416;SDS011;45222;52.458;20.914;2022-11-03T23:15:53;21.10;;;14.20;;
59416;SDS011;45222;52.458;20.914;2022-11-03T23:18:59;20.90;;;13.30;;
59416;SDS011;45222;52.458;20.914;2022-11-03T23:22:22;20.40;;;13.50;;
59416;SDS011;45222;52.458;20.914;2022-11-03T23:25:27;23.00;;;12.90;;
59416;SDS011;45222;52.458;20.914;2022-11-03T23:28:33;22.40;;;14.50;;
59416;SDS011;45222;52.458;20.914;2022-11-03T23:31:39;21.90;;;14.50;;
59416;SDS011;45222;52.458;20.914;2022-11-03T23:34:45;23.90;;;14.90;;
59416;SDS011;45222;52.458;20.914;2022-11-03T23:37:51;22.40;;;14.70;;
59416;SDS011;45222;52.458;20.914;2022-11-03T23:41:00;23.40;;;14.00;;
59416;SDS011;45222;52.458;20.914;2022-11-03T23:47:10;19.30;;;12.80;;
59416;SDS011;45222;52.458;20.914;2022-11-03T23:50:33;20.50;;;13.00;;
59416;SDS011;45222;52.458;20.914;2022-11-03T23:53:40;21.50;;;13.70;;
59416;SDS011;45222;52.458;20.914;2022-11-03T23:56:46;21.50;;;8.80;;
